Buffville, Kansas
Current Conditions -  °F | °C
As of 2:52 PM on Thursday 23 Oct 2014 (Local Time) from KPPF Reporting Station
Overcast Overcast  
Wind Chill: 64°   Ceiling: 1500
Heat Index: 64°   Visibility: 9mi
Dew Point: 58°   Wind: 12mph
Humidity: 80%   Direction: 180°S
Pressure: 30.1"   Gusts: NA
Location:  37.428°N, 95.6341°W
Report Text: KPPF 231952Z AUTO 18010KT 9SM OVC015 18/14 A3010 RMK AO2 SLP188 T01780144
Loading
Personal Weather Stations






























Interactive Weather Map
Tropical Storm Tracking
New forecast layout! Learn more

10-Day Weather Forecast

Advertisements
Track Severe Weather on mobile